PGT9KF LTFJ-LBSF
Flight info
| Callsign | PGT9KF |
|---|---|
| Flight time | N/A |
| Altitude | 36000 |
| Route | VADEN1J/06L VADEN DCT BAKLO DCT XANEX N605 GOL |
| Aircraft | A21N/M-SDE2E3FGHIRWXY/LB1 |
Departure
| Time | N/A |
|---|---|
| Airport | Istanbul Sabiha Gökçen International Airport (LTFJ) |
Arrival
| Time | 2026-05-03 20:53 |
|---|---|
| Airport | Sofia Airport (LBSF) |
| Time | Latitude | Longitude | Altitude | Speed | Heading |
|---|---|---|---|---|---|
| 2026-05-03 20:15 | 42.02079 | 27.30941 | 38098 ft | 467 kts | 303° |
| 2026-05-03 20:15 | 42.05679 | 27.23680 | 38099 ft | 466 kts | 308° |
| 2026-05-03 20:16 | 42.09778 | 27.16976 | 38100 ft | 466 kts | 311° |
| 2026-05-03 20:16 | 42.14023 | 27.10415 | 38100 ft | 463 kts | 312° |
| 2026-05-03 20:17 | 42.18289 | 27.03921 | 38107 ft | 462 kts | 312° |
| 2026-05-03 20:17 | 42.22566 | 26.97437 | 38106 ft | 463 kts | 312° |
| 2026-05-03 20:18 | 42.26855 | 26.90937 | 38117 ft | 464 kts | 312° |
| 2026-05-03 20:18 | 42.31144 | 26.84433 | 38106 ft | 463 kts | 313° |
| 2026-05-03 20:19 | 42.35423 | 26.77938 | 38115 ft | 463 kts | 313° |
| 2026-05-03 20:19 | 42.38979 | 26.72533 | 38113 ft | 463 kts | 313° |
| 2026-05-03 20:20 | 42.43976 | 26.64925 | 38114 ft | 461 kts | 313° |
| 2026-05-03 20:20 | 42.48262 | 26.58391 | 37550 ft | 469 kts | 313° |
| 2026-05-03 20:20 | 42.50424 | 26.55093 | 37108 ft | 466 kts | 312° |
| 2026-05-03 20:21 | 42.51835 | 26.52917 | 36819 ft | 463 kts | 309° |
| 2026-05-03 20:21 | 42.53692 | 26.49361 | 36404 ft | 461 kts | 303° |
| 2026-05-03 20:21 | 42.55356 | 26.45639 | 35986 ft | 462 kts | 301° |
| 2026-05-03 20:21 | 42.57467 | 26.40616 | 35445 ft | 463 kts | 300° |
| 2026-05-03 20:22 | 42.59022 | 26.36805 | 35043 ft | 462 kts | 300° |
| 2026-05-03 20:22 | 42.60062 | 26.34225 | 34777 ft | 460 kts | 299° |
| 2026-05-03 20:22 | 42.62064 | 26.29172 | 34260 ft | 458 kts | 296° |
| 2026-05-03 20:22 | 42.62902 | 26.26484 | 33986 ft | 458 kts | 291° |
| 2026-05-03 20:23 | 42.63946 | 26.22393 | 33515 ft | 457 kts | 289° |
| 2026-05-03 20:23 | 42.64902 | 26.18294 | 33052 ft | 453 kts | 288° |
| 2026-05-03 20:23 | 42.65821 | 26.14220 | 32625 ft | 448 kts | 287° |
| 2026-05-03 20:23 | 42.66719 | 26.10191 | 32218 ft | 445 kts | 287° |
| 2026-05-03 20:24 | 42.67615 | 26.06175 | 31812 ft | 443 kts | 287° |
| 2026-05-03 20:24 | 42.68512 | 26.02170 | 31411 ft | 441 kts | 287° |
| 2026-05-03 20:24 | 42.69399 | 25.98242 | 31021 ft | 438 kts | 287° |
| 2026-05-03 20:24 | 42.70291 | 25.94310 | 30636 ft | 435 kts | 287° |
| 2026-05-03 20:25 | 42.71187 | 25.90390 | 30259 ft | 433 kts | 287° |
| 2026-05-03 20:25 | 42.72082 | 25.86488 | 29798 ft | 431 kts | 287° |
| 2026-05-03 20:25 | 42.72970 | 25.82617 | 29375 ft | 427 kts | 288° |
| 2026-05-03 20:25 | 42.73850 | 25.78786 | 28957 ft | 423 kts | 288° |
| 2026-05-03 20:26 | 42.74727 | 25.74975 | 28552 ft | 421 kts | 288° |
| 2026-05-03 20:26 | 42.75600 | 25.71187 | 28134 ft | 419 kts | 288° |
| 2026-05-03 20:26 | 42.76470 | 25.67420 | 27734 ft | 416 kts | 288° |
| 2026-05-03 20:26 | 42.77335 | 25.63681 | 27335 ft | 412 kts | 289° |
| 2026-05-03 20:27 | 42.78192 | 25.59975 | 26974 ft | 408 kts | 289° |
| 2026-05-03 20:27 | 42.79046 | 25.56289 | 26630 ft | 407 kts | 289° |
| 2026-05-03 20:27 | 42.79897 | 25.52616 | 26262 ft | 406 kts | 289° |
| 2026-05-03 20:27 | 42.80731 | 25.49016 | 25921 ft | 402 kts | 289° |
| 2026-05-03 20:28 | 42.81568 | 25.45397 | 25579 ft | 399 kts | 290° |
| 2026-05-03 20:28 | 42.82401 | 25.41795 | 25233 ft | 398 kts | 290° |
| 2026-05-03 20:28 | 42.83230 | 25.38210 | 24902 ft | 396 kts | 290° |
| 2026-05-03 20:28 | 42.84052 | 25.34647 | 24567 ft | 393 kts | 290° |
| 2026-05-03 20:29 | 42.84869 | 25.31104 | 24238 ft | 390 kts | 290° |
| 2026-05-03 20:29 | 42.85680 | 25.27587 | 23935 ft | 388 kts | 291° |
| 2026-05-03 20:29 | 42.86488 | 25.24079 | 23599 ft | 387 kts | 291° |
| 2026-05-03 20:29 | 42.87293 | 25.20586 | 23239 ft | 385 kts | 291° |
| 2026-05-03 20:30 | 42.88093 | 25.17111 | 22882 ft | 382 kts | 291° |
| 2026-05-03 20:30 | 42.88887 | 25.13666 | 22511 ft | 380 kts | 291° |
| 2026-05-03 20:30 | 42.89678 | 25.10226 | 22161 ft | 379 kts | 291° |
| 2026-05-03 20:30 | 42.90464 | 25.06803 | 21819 ft | 377 kts | 291° |
| 2026-05-03 20:31 | 42.91244 | 25.03402 | 21485 ft | 374 kts | 291° |
| 2026-05-03 20:31 | 42.92017 | 25.00021 | 21163 ft | 372 kts | 291° |
| 2026-05-03 20:31 | 42.92786 | 24.96651 | 20851 ft | 372 kts | 291° |
| 2026-05-03 20:31 | 42.93553 | 24.93291 | 20551 ft | 370 kts | 291° |
| 2026-05-03 20:32 | 42.94304 | 24.89986 | 20242 ft | 368 kts | 291° |
| 2026-05-03 20:32 | 42.95070 | 24.86617 | 19949 ft | 366 kts | 291° |
| 2026-05-03 20:32 | 42.95812 | 24.83345 | 19659 ft | 365 kts | 291° |
| 2026-05-03 20:32 | 42.96561 | 24.80040 | 19354 ft | 364 kts | 291° |
| 2026-05-03 20:33 | 42.97305 | 24.76748 | 19073 ft | 362 kts | 291° |
| 2026-05-03 20:33 | 42.98044 | 24.73476 | 18784 ft | 359 kts | 291° |
| 2026-05-03 20:33 | 42.98778 | 24.70220 | 18491 ft | 359 kts | 291° |
| 2026-05-03 20:33 | 42.99510 | 24.66970 | 18156 ft | 357 kts | 291° |
| 2026-05-03 20:34 | 43.00235 | 24.63739 | 17834 ft | 353 kts | 291° |
| 2026-05-03 20:34 | 43.00955 | 24.60524 | 17535 ft | 353 kts | 291° |
| 2026-05-03 20:34 | 43.01675 | 24.57316 | 17242 ft | 352 kts | 291° |
| 2026-05-03 20:34 | 43.02386 | 24.54134 | 16953 ft | 349 kts | 291° |
| 2026-05-03 20:35 | 43.03094 | 24.50965 | 16672 ft | 349 kts | 291° |
| 2026-05-03 20:35 | 43.03800 | 24.47798 | 16377 ft | 347 kts | 291° |
| 2026-05-03 20:35 | 43.04500 | 24.44656 | 16084 ft | 345 kts | 290° |
| 2026-05-03 20:35 | 43.05198 | 24.41519 | 15806 ft | 345 kts | 290° |
| 2026-05-03 20:36 | 43.05891 | 24.38394 | 15536 ft | 343 kts | 290° |
| 2026-05-03 20:36 | 43.06581 | 24.35284 | 15257 ft | 341 kts | 290° |
| 2026-05-03 20:36 | 43.07266 | 24.32187 | 14995 ft | 340 kts | 290° |
| 2026-05-03 20:36 | 43.07949 | 24.29099 | 14740 ft | 339 kts | 290° |
| 2026-05-03 20:37 | 43.08627 | 24.26020 | 14503 ft | 338 kts | 290° |
| 2026-05-03 20:37 | 43.09078 | 24.22865 | 14230 ft | 342 kts | 273° |
| 2026-05-03 20:37 | 43.08673 | 24.19698 | 13882 ft | 346 kts | 250° |
| 2026-05-03 20:37 | 43.07417 | 24.16912 | 13490 ft | 346 kts | 227° |
| 2026-05-03 20:38 | 43.05502 | 24.14961 | 13116 ft | 344 kts | 204° |
| 2026-05-03 20:38 | 43.03229 | 24.14064 | 12754 ft | 339 kts | 187° |
| 2026-05-03 20:38 | 43.00903 | 24.13572 | 12387 ft | 337 kts | 186° |
| 2026-05-03 20:38 | 42.98607 | 24.13035 | 12025 ft | 330 kts | 189° |
| 2026-05-03 20:39 | 42.96398 | 24.12358 | 11688 ft | 320 kts | 192° |
| 2026-05-03 20:39 | 42.94288 | 24.11539 | 11340 ft | 311 kts | 195° |
| 2026-05-03 20:39 | 42.92266 | 24.10597 | 11042 ft | 303 kts | 198° |
| 2026-05-03 20:39 | 42.90328 | 24.09559 | 10737 ft | 296 kts | 201° |
| 2026-05-03 20:40 | 42.88442 | 24.08436 | 10442 ft | 295 kts | 202° |
| 2026-05-03 20:40 | 42.86594 | 24.07242 | 10149 ft | 294 kts | 204° |
| 2026-05-03 20:40 | 42.84770 | 24.05995 | 9853 ft | 293 kts | 205° |
| 2026-05-03 20:40 | 42.82984 | 24.04724 | 9541 ft | 285 kts | 206° |
| 2026-05-03 20:41 | 42.81252 | 24.03452 | 9250 ft | 282 kts | 207° |
| 2026-05-03 20:41 | 42.79534 | 24.02167 | 8956 ft | 283 kts | 207° |
| 2026-05-03 20:41 | 42.77819 | 24.00871 | 8678 ft | 281 kts | 208° |
| 2026-05-03 20:41 | 42.76110 | 23.99596 | 8429 ft | 278 kts | 202° |
| 2026-05-03 20:42 | 42.74298 | 23.98739 | 8191 ft | 275 kts | 192° |
| 2026-05-03 20:42 | 42.72431 | 23.98194 | 7923 ft | 274 kts | 187° |
| 2026-05-03 20:42 | 42.70548 | 23.97815 | 7662 ft | 272 kts | 184° |
| 2026-05-03 20:42 | 42.68708 | 23.97460 | 7421 ft | 272 kts | 195° |
| 2026-05-03 20:43 | 42.67085 | 23.96235 | 7181 ft | 265 kts | 225° |
| 2026-05-03 20:43 | 42.66123 | 23.94193 | 6968 ft | 254 kts | 256° |
| 2026-05-03 20:43 | 42.66014 | 23.91885 | 6761 ft | 240 kts | 283° |
| 2026-05-03 20:43 | 42.66321 | 23.89635 | 6291 ft | 243 kts | 282° |
| 2026-05-03 20:44 | 42.66583 | 23.87377 | 5941 ft | 241 kts | 280° |
| 2026-05-03 20:44 | 42.66806 | 23.85131 | 5599 ft | 238 kts | 279° |
| 2026-05-03 20:44 | 42.67003 | 23.82913 | 5214 ft | 235 kts | 278° |
| 2026-05-03 20:44 | 42.67176 | 23.80723 | 4862 ft | 232 kts | 277° |
| 2026-05-03 20:45 | 42.67332 | 23.78553 | 4505 ft | 228 kts | 277° |
| 2026-05-03 20:45 | 42.67500 | 23.76500 | 4455 ft | 208 kts | 278° |
| 2026-05-03 20:45 | 42.67656 | 23.74570 | 4463 ft | 209 kts | 278° |
| 2026-05-03 20:45 | 42.67805 | 23.72595 | 4469 ft | 206 kts | 277° |
| 2026-05-03 20:46 | 42.67875 | 23.71557 | 4475 ft | 195 kts | 277° |
| 2026-05-03 20:46 | 42.67944 | 23.70446 | 4478 ft | 183 kts | 276° |
| 2026-05-03 20:47 | 42.67997 | 23.69461 | 4487 ft | 172 kts | 277° |
| 2026-05-03 20:47 | 42.68084 | 23.67861 | 4477 ft | 170 kts | 277° |
| 2026-05-03 20:47 | 42.68164 | 23.66329 | 4481 ft | 156 kts | 277° |
| 2026-05-03 20:48 | 42.68189 | 23.65831 | 4484 ft | 156 kts | 277° |
| 2026-05-03 20:48 | 42.68224 | 23.65148 | 4478 ft | 153 kts | 277° |
| 2026-05-03 20:49 | 42.68305 | 23.63700 | 4484 ft | 155 kts | 276° |
| 2026-05-03 20:49 | 42.68387 | 23.62245 | 4482 ft | 153 kts | 276° |
| 2026-05-03 20:49 | 42.68484 | 23.60781 | 4344 ft | 159 kts | 277° |
| 2026-05-03 20:49 | 42.68524 | 23.60211 | 4242 ft | 157 kts | 277° |
| 2026-05-03 20:50 | 42.68623 | 23.58770 | 4000 ft | 150 kts | 276° |
| 2026-05-03 20:50 | 42.68712 | 23.57374 | 3789 ft | 148 kts | 276° |
| 2026-05-03 20:50 | 42.68798 | 23.55976 | 3578 ft | 149 kts | 275° |
| 2026-05-03 20:50 | 42.68880 | 23.54578 | 3350 ft | 147 kts | 275° |
| 2026-05-03 20:51 | 42.68960 | 23.53195 | 3125 ft | 147 kts | 275° |
| 2026-05-03 20:51 | 42.69040 | 23.51801 | 2909 ft | 149 kts | 274° |
| 2026-05-03 20:51 | 42.69121 | 23.50398 | 2708 ft | 148 kts | 274° |
| 2026-05-03 20:51 | 42.69204 | 23.49005 | 2522 ft | 147 kts | 275° |
| 2026-05-03 20:52 | 42.69294 | 23.47615 | 2340 ft | 149 kts | 275° |
| 2026-05-03 20:52 | 42.69384 | 23.46231 | 2130 ft | 146 kts | 274° |
| 2026-05-03 20:52 | 42.69454 | 23.44857 | 1904 ft | 147 kts | 274° |
| 2026-05-03 20:52 | 42.69535 | 23.43491 | 1748 ft | 145 kts | 275° |
| 2026-05-03 20:53 | 42.69609 | 23.42319 | 1746 ft | 91 kts | 277° |
| 2026-05-03 20:53 | 42.69632 | 23.41762 | 1750 ft | 43 kts | 261° |
| 2026-05-03 20:53 | 42.69570 | 23.41519 | 1749 ft | 2 kts | 245° |
| 2026-05-03 20:53 | 42.69569 | 23.41519 | 1749 ft | 0 kts | 245° |
| 2026-05-03 20:54 | 42.69538 | 23.41432 | 1747 ft | 11 kts | 243° |
| 2026-05-03 20:54 | 42.69514 | 23.41361 | 1745 ft | 14 kts | 246° |
| 2026-05-03 20:55 | 42.69466 | 23.41226 | 1747 ft | 17 kts | 222° |
| 2026-05-03 20:55 | 42.69289 | 23.41165 | 1746 ft | 23 kts | 193° |
| 2026-05-03 20:55 | 42.69193 | 23.41157 | 1745 ft | 18 kts | 162° |
| 2026-05-03 20:55 | 42.69105 | 23.41199 | 1741 ft | 21 kts | 161° |
| 2026-05-03 20:56 | 42.69035 | 23.41317 | 1743 ft | 0 kts | 72° |
| 2026-05-03 20:56 | 42.69036 | 23.41322 | 1744 ft | 0 kts | 72° |